Time;durP1;ratioP1;P1;durP2;ratioP2;P2;SDS_P1;SDS_P2;PMS_P1;PMS_P2;Temp;Humidity;BMP_temperature;BMP_pressure;BME280_temperature;BME280_humidity;BME280_pressure;Samples;Min_cycle;Max_cycle;Signal;HPM_P1;HPM_P2
2021/12/07 00:02:16;;;;;;;;;67.50;50.00;;;;;1.55;100.00;98925.66;6281651;20;2867979;-42
2021/12/07 00:04:46;;;;;;;;;66.33;49.00;;;;;1.38;100.00;98928.06;6279645;20;2882679;-42
2021/12/07 00:07:17;;;;;;;;;57.00;45.50;;;;;1.57;100.00;98926.47;6312547;20;2849244;-42
2021/12/07 00:09:49;;;;;;;;;48.50;41.50;;;;;1.51;100.00;98927.56;6279640;20;2852406;-42
2021/12/07 00:12:18;;;;;;;;;60.50;46.50;;;;;1.59;100.00;98926.41;6277710;20;2489880;-42
2021/12/07 00:14:47;;;;;;;;;53.50;45.00;;;;;1.49;100.00;98928.53;6277335;20;2872323;-42
2021/12/07 00:17:15;;;;;;;;;65.00;48.00;;;;;1.52;100.00;98931.91;6277588;20;2497154;-42
2021/12/07 00:19:44;;;;;;;;;61.50;46.50;;;;;1.47;100.00;98933.00;6279953;20;2854569;-41
2021/12/07 00:22:14;;;;;;;;;56.33;42.33;;;;;1.49;100.00;98941.75;6281005;20;3629433;-42
2021/12/07 00:24:42;;;;;;;;;64.00;49.00;;;;;1.49;100.00;98932.03;6310079;20;2508586;-42
2021/12/07 00:27:11;;;;;;;;;61.00;45.00;;;;;1.56;100.00;98921.25;6277661;20;2855623;-42
2021/12/07 00:29:40;;;;;;;;;65.00;47.33;;;;;1.48;100.00;98919.75;6279418;20;3630558;-41
2021/12/07 00:32:31;;;;;;;;;60.50;46.00;;;;;1.45;100.00;98929.56;6311223;20;2866217;-42
2021/12/07 00:35:22;;;;;;;;;58.33;43.00;;;;;1.55;100.00;98930.94;6279487;20;3627362;-42
2021/12/07 00:37:57;;;;;;;;;70.00;51.00;;;;;1.49;100.00;98921.44;6312776;20;2784634;-43
2021/12/07 00:40:26;;;;;;;;;64.50;50.00;;;;;1.45;100.00;98922.50;6279128;20;2866927;-42
2021/12/07 00:42:55;;;;;;;;;63.00;49.00;;;;;1.49;100.00;98925.88;6281121;20;2862734;-42
2021/12/07 00:45:25;;;;;;;;;70.67;51.33;;;;;1.43;100.00;98928.75;6279285;20;3636831;-42
2021/12/07 00:47:55;;;;;;;;;66.50;49.50;;;;;1.42;100.00;98934.97;6312502;20;2869023;-42
2021/12/07 00:50:26;;;;;;;;;63.67;49.00;;;;;1.39;100.00;98930.63;6281770;20;3618061;-42
2021/12/07 00:52:57;;;;;;;;;68.00;50.00;;;;;1.53;100.00;98925.72;6313584;20;2878421;-42
2021/12/07 00:55:31;;;;;;;;;61.00;47.33;;;;;1.44;100.00;98933.13;6308107;20;2862989;-42
2021/12/07 00:58:05;;;;;;;;;68.00;52.00;;;;;1.37;100.00;98916.63;6308737;20;2872135;-42
2021/12/07 01:00:34;;;;;;;;;56.50;43.00;;;;;1.39;100.00;98914.78;6280406;20;2863848;-42
2021/12/07 01:03:03;;;;;;;;;60.00;45.00;;;;;1.18;100.00;98920.84;6279759;20;2868192;-42
2021/12/07 01:05:35;;;;;;;;;60.00;48.00;;;;;1.26;100.00;98918.78;6279821;20;2858264;-42
2021/12/07 01:27:06;;;;;;;;;59.00;45.00;;;;;1.33;100.00;98887.72;6278131;20;2853401;-42
2021/12/07 01:29:37;;;;;;;;;54.00;44.50;;;;;1.24;100.00;98888.91;6278839;20;2837903;-43
2021/12/07 01:37:37;;;;;;;;;58.00;45.00;;;;;1.29;100.00;98886.94;6311320;20;2837757;-42
2021/12/07 01:51:28;;;;;;;;;63.00;48.00;;;;;1.29;100.00;98898.41;6280539;20;2869440;-44
2021/12/07 01:59:33;;;;;;;;;47.67;39.33;;;;;1.09;100.00;98898.25;6308767;20;3628388;-42
2021/12/07 02:02:13;;;;;;;;;58.00;44.50;;;;;1.23;100.00;98887.16;6312802;20;2848318;-42
2021/12/07 02:04:42;;;;;;;;;60.50;42.00;;;;;1.16;100.00;98896.22;6275631;20;2492950;-42
2021/12/07 02:07:12;;;;;;;;;59.00;45.00;;;;;1.23;100.00;98900.41;6277831;20;2855621;-43
2021/12/07 02:09:47;;;;;;;;;60.67;44.00;;;;;1.07;100.00;98897.44;6281643;20;2867048;-43
2021/12/07 02:12:16;;;;;;;;;58.00;41.00;;;;;1.20;100.00;98905.78;6315236;20;2817006;-42
2021/12/07 02:14:44;;;;;;;;;52.50;44.00;;;;;1.19;100.00;98904.09;6278788;20;2498174;-42
2021/12/07 02:17:21;;;;;;;;;63.00;44.33;;;;;1.19;100.00;98896.16;6285560;20;2887829;-42
2021/12/07 02:19:50;;;;;;;;;61.50;47.00;;;;;0.98;100.00;98896.00;6312860;20;2468016;-42
2021/12/07 02:22:19;;;;;;;;;64.00;47.50;;;;;1.14;100.00;98890.16;6284622;20;2861752;-43
2021/12/07 02:24:49;;;;;;;;;59.50;45.50;;;;;1.10;100.00;98884.97;6286172;20;2846067;-42
2021/12/07 02:27:18;;;;;;;;;64.00;43.00;;;;;1.13;100.00;98888.41;6282628;20;2871231;-42
2021/12/07 02:29:47;;;;;;;;;59.00;43.00;;;;;1.23;100.00;98887.16;6316159;20;2866904;-42
2021/12/07 02:32:17;;;;;;;;;46.67;40.33;;;;;1.03;100.00;98891.41;6284205;20;3611815;-43
2021/12/07 02:34:59;;;;;;;;;67.00;44.00;;;;;1.27;100.00;98891.44;6315443;20;2876401;-42
2021/12/07 02:37:33;;;;;;;;;57.33;43.00;;;;;1.23;100.00;98895.97;6313892;20;2885662;-43
2021/12/07 02:40:02;;;;;;;;;60.00;46.00;;;;;1.15;100.00;98889.25;6310553;20;2493072;-41
2021/12/07 02:42:31;;;;;;;;;64.00;45.33;;;;;1.33;100.00;98875.34;6285949;20;3624214;-43
2021/12/07 02:45:01;;;;;;;;;57.50;47.00;;;;;1.10;100.00;98874.38;6314713;20;2877565;-42
2021/12/07 02:47:35;;;;;;;;;57.00;44.00;;;;;1.19;100.00;98873.22;6284016;20;2867051;-42
2021/12/07 02:50:07;;;;;;;;;62.00;43.50;;;;;1.07;100.00;98866.56;6281750;20;2876506;-42
2021/12/07 02:52:37;;;;;;;;;53.67;44.67;;;;;1.13;100.00;98875.19;6281939;20;2881595;-42
2021/12/07 02:55:08;;;;;;;;;56.50;45.00;;;;;1.08;100.00;98881.53;6312614;20;2492062;-42
2021/12/07 02:57:37;;;;;;;;;60.50;45.00;;;;;1.04;100.00;98871.97;6283136;20;2867949;-42
2021/12/07 03:00:19;;;;;;;;;58.50;45.00;;;;;0.99;100.00;98876.56;6284009;20;2844003;-42
2021/12/07 03:02:58;;;;;;;;;65.33;47.33;;;;;1.08;100.00;98873.59;6287120;20;2871119;-42
2021/12/07 03:27:44;;;;;;;;;58.00;48.00;;;;;1.03;100.00;98859.69;6279197;20;2499210;-43
2021/12/07 03:30:13;;;;;;;;;54.50;43.50;;;;;0.93;100.00;98853.00;6283180;20;2875253;-41
2021/12/07 03:32:42;;;;;;;;;62.33;49.00;;;;;0.82;100.00;98853.41;6284135;20;3601296;-43
2021/12/07 03:35:12;;;;;;;;;62.50;46.50;;;;;1.06;100.00;98856.94;6281181;20;2856638;-41
2021/12/07 03:37:41;;;;;;;;;66.50;48.00;;;;;0.91;100.00;98852.19;6284048;20;2860827;-41
2021/12/07 03:40:13;;;;;;;;;52.00;44.67;;;;;1.03;100.00;98854.41;6277225;20;2870212;-44
2021/12/07 03:42:43;;;;;;;;;53.33;44.00;;;;;1.01;100.00;98847.44;6314876;20;3616962;-41
2021/12/07 03:45:12;;;;;;;;;65.67;46.67;;;;;0.97;100.00;98859.03;6312172;20;2871154;-41
2021/12/07 03:47:42;;;;;;;;;67.67;46.67;;;;;0.98;100.00;98866.94;6314645;20;2885737;-41
2021/12/07 03:50:12;;;;;;;;;61.50;44.50;;;;;0.83;100.00;98873.59;6314176;20;2868113;-42
2021/12/07 03:52:40;;;;;;;;;58.00;44.50;;;;;0.88;100.00;98865.53;6274536;20;2497214;-42
2021/12/07 03:55:09;;;;;;;;;51.00;39.00;;;;;1.04;100.00;98871.97;6282871;20;2876302;-42
2021/12/07 03:57:39;;;;;;;;;56.33;46.67;;;;;0.96;100.00;98874.03;6282543;20;2846186;-42
2021/12/07 04:00:19;;;;;;;;;69.00;47.67;;;;;1.03;100.00;98879.97;6310327;20;2864089;-43
2021/12/07 04:02:51;;;;;;;;;71.00;51.67;;;;;0.85;100.00;98878.84;6312830;20;2894116;-43
2021/12/07 04:05:23;;;;;;;;;62.50;46.00;;;;;1.08;100.00;98878.91;6314098;20;2860663;-42
2021/12/07 04:07:53;;;;;;;;;65.00;45.33;;;;;0.98;100.00;98877.50;6283890;20;2880596;-42
2021/12/07 04:10:25;;;;;;;;;63.67;45.33;;;;;1.03;100.00;98875.56;6315313;20;2872320;-42
2021/12/07 04:12:54;;;;;;;;;61.00;44.00;;;;;1.14;100.00;98880.44;6315814;20;2821081;-42
2021/12/07 04:15:23;;;;;;;;;55.00;44.00;;;;;1.13;100.00;98881.34;6281036;20;2869044;-42
2021/12/07 04:17:52;;;;;;;;;59.50;41.50;;;;;1.06;100.00;98885.16;6283737;20;2870039;-41
2021/12/07 04:20:22;;;;;;;;;61.67;45.33;;;;;1.12;100.00;98886.72;6277491;20;2875671;-42
2021/12/07 04:22:51;;;;;;;;;55.67;44.33;;;;;1.05;100.00;98889.59;6313018;20;3611710;-42
2021/12/07 04:25:23;;;;;;;;;52.67;42.67;;;;;1.31;100.00;98885.09;6313443;20;3610738;-42
2021/12/07 04:27:55;;;;;;;;;49.00;43.00;;;;;1.15;100.00;98894.53;6310499;20;2874201;-40
2021/12/07 04:30:36;;;;;;;;;48.67;39.00;;;;;1.08;100.00;98892.13;6283651;20;2876325;-41
2021/12/07 04:33:08;;;;;;;;;51.50;42.00;;;;;1.03;100.00;98888.78;6308398;20;2498183;-42
2021/12/07 04:35:44;;;;;;;;;54.67;41.33;;;;;1.08;100.00;98889.47;6282275;20;2874688;-42
2021/12/07 04:38:14;;;;;;;;;63.50;45.50;;;;;1.15;100.00;98900.66;6313132;20;2857712;-42
2021/12/07 04:40:45;;;;;;;;;58.33;42.67;;;;;0.98;100.00;98898.63;6283294;20;3627342;-42
2021/12/07 04:43:15;;;;;;;;;56.00;42.33;;;;;0.91;100.00;98901.56;6313910;20;2885837;-43
2021/12/07 04:59:23;;;;;;;;;62.50;46.00;;;;;1.14;100.00;98895.44;6280257;20;2863847;-43
2021/12/07 05:01:53;;;;;;;;;68.00;48.67;;;;;1.30;100.00;98899.25;6281415;20;2884669;-41
2021/12/07 05:04:27;;;;;;;;;64.00;47.67;;;;;1.22;100.00;98896.03;6311583;20;2877371;-41
2021/12/07 05:07:06;;;;;;;;;53.67;44.33;;;;;1.18;100.00;98897.91;6313909;20;2873199;-42
2021/12/07 05:10:10;;;;;;;;;60.50;44.00;;;;;1.21;100.00;98892.53;6309846;20;2876327;-42
2021/12/07 05:15:13;;;;;;;;;53.00;44.00;;;;;1.22;100.00;98901.31;6278469;20;2494099;-41
2021/12/07 05:39:54;;;;;;;;;61.00;50.50;;;;;0.98;100.00;98905.72;6278740;20;2852926;-41
2021/12/07 05:42:23;;;;;;;;;66.50;51.00;;;;;0.96;100.00;98905.75;6280546;20;2866935;-41
2021/12/07 05:44:55;;;;;;;;;64.00;48.00;;;;;0.85;100.00;98892.06;6285633;20;2862779;-41
2021/12/07 05:47:24;;;;;;;;;60.00;47.00;;;;;0.91;100.00;98897.13;6281415;20;2468018;-43
2021/12/07 05:49:52;;;;;;;;;61.00;47.50;;;;;0.93;100.00;98897.09;6283128;20;2487789;-43
2021/12/07 05:52:21;;;;;;;;;67.00;49.00;;;;;0.98;100.00;98893.34;6285174;20;2867987;-42
2021/12/07 05:54:50;;;;;;;;;69.00;48.33;;;;;0.91;100.00;98885.69;6286314;20;3631511;-43
2021/12/07 05:57:21;;;;;;;;;71.67;54.00;;;;;0.93;100.00;98892.66;6315421;20;2872216;-42
2021/12/07 05:59:50;;;;;;;;;63.00;48.33;;;;;0.96;100.00;98892.53;6316328;20;2859613;-42
2021/12/07 06:02:19;;;;;;;;;62.50;52.50;;;;;0.86;100.00;98893.78;6317429;20;2855558;-42
2021/12/07 06:04:48;;;;;;;;;58.00;45.00;;;;;0.94;100.00;98891.72;6288737;20;2840955;-43
2021/12/07 06:07:17;;;;;;;;;67.00;51.00;;;;;1.01;100.00;98895.88;6286479;20;2873161;-42
2021/12/07 06:09:46;;;;;;;;;70.33;52.67;;;;;1.02;100.00;98899.38;6285655;20;3616891;-41
2021/12/07 06:12:15;;;;;;;;;64.50;48.00;;;;;0.95;100.00;98901.41;6316941;20;2863842;-42
2021/12/07 06:14:44;;;;;;;;;57.50;48.00;;;;;0.93;100.00;98899.72;6282830;20;2499240;-42
2021/12/07 06:17:13;;;;;;;;;63.00;48.00;;;;;1.00;100.00;98894.16;6285559;20;2862845;-41
2021/12/07 06:19:42;;;;;;;;;76.50;53.00;;;;;1.03;100.00;98888.78;6282713;20;2875283;-42
2021/12/07 06:22:11;;;;;;;;;74.00;47.67;;;;;1.06;100.00;98893.09;6286548;20;3634591;-43
2021/12/07 06:24:41;;;;;;;;;73.67;54.67;;;;;1.08;100.00;98900.03;6316185;20;3631581;-42
2021/12/07 06:27:10;;;;;;;;;66.00;51.00;;;;;0.88;100.00;98897.22;6316221;20;2860702;-42
2021/12/07 06:29:40;;;;;;;;;70.00;50.33;;;;;0.87;100.00;98896.38;6285876;20;2887755;-42
2021/12/07 06:32:10;;;;;;;;;74.33;51.33;;;;;0.94;100.00;98902.28;6316123;20;2880518;-41
2021/12/07 06:34:39;;;;;;;;;70.33;49.33;;;;;0.82;100.00;98894.81;6318534;20;3637714;-42
2021/12/07 06:37:09;;;;;;;;;65.67;46.67;;;;;0.84;100.00;98891.19;6314678;20;2876498;-42
2021/12/07 06:39:38;;;;;;;;;65.00;50.00;;;;;0.94;100.00;98891.72;6314415;20;2866952;-42
2021/12/07 06:42:07;;;;;;;;;73.00;52.00;;;;;0.96;100.00;98892.53;6285121;20;2877338;-41
2021/12/07 06:44:35;;;;;;;;;65.00;49.50;;;;;1.01;100.00;98892.38;6284708;20;2872134;-42
2021/12/07 06:47:04;;;;;;;;;53.00;44.00;;;;;1.03;100.00;98886.13;6283638;20;2486793;-42
2021/12/07 06:49:33;;;;;;;;;63.50;48.50;;;;;1.08;100.00;98889.47;6283194;20;2876450;-42
2021/12/07 06:52:03;;;;;;;;;74.67;52.33;;;;;0.98;100.00;98893.34;6283997;20;3645045;-41
2021/12/07 06:54:35;;;;;;;;;78.00;57.33;;;;;1.09;100.00;98891.19;6314225;20;3648229;-42
2021/12/07 06:57:05;;;;;;;;;77.67;58.00;;;;;1.12;100.00;98892.84;6315378;20;2894183;-41
2021/12/07 06:59:34;;;;;;;;;72.00;53.33;;;;;1.16;100.00;98890.94;6313210;20;2891001;-40
2021/12/07 07:02:04;;;;;;;;;78.67;56.00;;;;;1.08;100.00;98904.47;6317143;20;3649359;-41
2021/12/07 07:04:33;;;;;;;;;64.50;48.50;;;;;1.21;100.00;98904.88;6315297;20;2861760;-41
2021/12/07 07:07:03;;;;;;;;;68.50;50.50;;;;;1.15;100.00;98905.09;6285547;20;2872161;-40
2021/12/07 07:09:31;;;;;;;;;65.50;52.00;;;;;0.85;100.00;98906.13;6279492;20;2493989;-41
2021/12/07 07:11:59;;;;;;;;;79.00;61.00;;;;;1.01;100.00;98905.59;6283793;20;2878399;-41
2021/12/07 07:14:28;;;;;;;;;69.50;46.50;;;;;1.08;100.00;98904.47;6285249;20;2870169;-41
2021/12/07 07:16:58;;;;;;;;;76.33;55.00;;;;;0.99;100.00;98913.56;6282918;20;3656482;-40
2021/12/07 07:19:27;;;;;;;;;56.33;40.33;;;;;0.99;100.00;98904.78;6315954;20;2886705;-42
2021/12/07 07:22:01;;;;;;;;;67.67;48.67;;;;;1.10;100.00;98907.91;6314680;20;3634092;-41
2021/12/07 07:24:32;;;;;;;;;64.33;47.67;;;;;1.24;100.00;98910.06;6316090;20;2866910;-43
2021/12/07 07:27:01;;;;;;;;;59.00;46.00;;;;;1.16;100.00;98909.47;6311669;20;2487880;-41
2021/12/07 07:29:30;;;;;;;;;66.50;51.00;;;;;1.22;100.00;98911.91;6281649;20;2869025;-41
2021/12/07 07:31:59;;;;;;;;;65.00;48.00;;;;;1.15;99.89;98910.38;6282820;20;2865998;-42
2021/12/07 07:34:28;;;;;;;;;66.50;46.50;;;;;1.19;99.95;98917.31;6284336;20;2846124;-42
2021/12/07 07:36:56;;;;;;;;;64.50;54.00;;;;;1.21;100.00;98915.44;6280649;20;2500270;-42
2021/12/07 07:39:26;;;;;;;;;74.00;51.00;;;;;1.08;100.00;98915.91;6280966;20;2885702;-41
2021/12/07 07:41:55;;;;;;;;;65.00;50.00;;;;;1.12;100.00;98916.66;6315184;20;2855546;-41
2021/12/07 07:44:25;;;;;;;;;71.67;53.00;;;;;1.27;100.00;98909.97;6284226;20;2883612;-41
2021/12/07 07:46:54;;;;;;;;;64.50;46.50;;;;;1.31;100.00;98922.13;6313259;20;2875272;-41
2021/12/07 07:49:23;;;;;;;;;64.33;47.00;;;;;1.25;100.00;98928.50;6281507;20;2882751;-41
2021/12/07 07:51:53;;;;;;;;;62.00;48.33;;;;;1.21;100.00;98937.47;6315512;20;2871087;-41
2021/12/07 07:54:21;;;;;;;;;60.00;45.00;;;;;1.34;100.00;98934.38;6311550;20;2500249;-43
2021/12/07 07:56:50;;;;;;;;;70.67;54.67;;;;;1.25;100.00;98932.94;6280445;20;2878431;-44
2021/12/07 07:59:19;;;;;;;;;71.50;54.00;;;;;1.31;99.79;98943.28;6309132;20;2861727;-41
2021/12/07 08:01:49;;;;;;;;;68.33;51.33;;;;;1.31;99.95;98945.94;6283391;20;2881676;-41
2021/12/07 08:04:18;;;;;;;;;62.50;49.50;;;;;1.47;99.34;98939.16;6314049;20;2847124;-41
2021/12/07 08:06:47;;;;;;;;;63.50;49.00;;;;;1.43;99.24;98945.50;6282062;20;2869104;-41
2021/12/07 08:09:17;;;;;;;;;68.00;53.00;;;;;1.36;99.50;98951.06;6281781;20;2882622;-41
2021/12/07 08:11:46;;;;;;;;;61.67;45.00;;;;;1.42;99.30;98954.34;6315940;20;2886863;-41
2021/12/07 08:14:18;;;;;;;;;67.00;53.00;;;;;1.47;99.17;98948.88;6314331;20;2866011;-41
2021/12/07 08:16:47;;;;;;;;;72.00;52.33;;;;;1.33;100.00;98953.81;6284145;20;2883731;-40
2021/12/07 08:19:17;;;;;;;;;68.00;54.50;;;;;1.44;99.96;98949.84;6311703;20;2855454;-41
2021/12/07 08:21:45;;;;;;;;;67.50;52.00;;;;;1.52;99.24;98953.06;6285077;20;2865903;-43
2021/12/07 08:24:14;;;;;;;;;63.00;52.00;;;;;1.45;99.75;98951.59;6281026;20;2500293;-42
2021/12/07 08:26:44;;;;;;;;;69.50;54.00;;;;;1.32;100.00;98952.97;6278227;20;2890885;-42
2021/12/07 08:29:13;;;;;;;;;75.33;54.00;;;;;1.39;100.00;98951.81;6282466;20;2882637;-41
2021/12/07 08:31:43;;;;;;;;;74.00;55.00;;;;;1.51;100.00;98943.44;6313825;20;2890991;-41
2021/12/07 08:34:13;;;;;;;;;74.00;55.33;;;;;1.58;99.60;98940.53;6315344;20;3649179;-41
2021/12/07 08:36:43;;;;;;;;;67.00;51.67;;;;;1.60;99.47;98939.56;6313541;20;3613761;-42
2021/12/07 08:39:12;;;;;;;;;70.50;54.50;;;;;1.70;99.60;98934.81;6312545;20;2867945;-45
2021/12/07 08:41:42;;;;;;;;;74.33;52.67;;;;;1.65;98.84;98932.31;6282127;20;2890951;-42
2021/12/07 08:44:12;;;;;;;;;77.33;58.00;;;;;1.59;99.85;98923.78;6315083;20;3643990;-43
2021/12/07 08:46:42;;;;;;;;;68.67;50.00;;;;;1.76;98.09;98929.28;6313413;20;3632524;-42
2021/12/07 08:49:11;;;;;;;;;66.00;51.00;;;;;1.66;98.81;98930.53;6313941;20;2875240;-41
2021/12/07 08:51:42;;;;;;;;;70.00;54.33;;;;;1.67;98.86;98927.84;6280825;20;3627394;-43
2021/12/07 08:59:39;;;;;;;;;68.67;53.00;;;;;1.80;96.99;98930.91;6309085;20;2887902;-41
2021/12/07 09:02:09;;;;;;;;;61.00;46.00;;;;;2.20;97.07;98932.84;6313905;20;2863874;-42
2021/12/07 09:04:38;;;;;;;;;68.00;51.00;;;;;1.99;96.47;98931.03;6282371;20;2878409;-42
2021/12/07 09:07:07;;;;;;;;;65.67;50.67;;;;;2.35;95.18;98928.72;6282874;20;2856639;-42
2021/12/07 09:09:39;;;;;;;;;65.33;50.00;;;;;2.41;95.54;98928.47;6311012;20;2868055;-44
2021/12/07 09:12:10;;;;;;;;;67.00;50.33;;;;;2.46;94.74;98923.00;6311198;20;2869092;-42
2021/12/07 09:14:42;;;;;;;;;68.33;54.00;;;;;2.43;94.12;98920.47;6313388;20;3635638;-42
2021/12/07 09:17:14;;;;;;;;;76.00;54.00;;;;;2.74;94.07;98919.19;6311549;20;3629383;-42
2021/12/07 09:19:47;;;;;;;;;72.67;51.33;;;;;2.54;93.48;98918.25;6311582;20;2877468;-41
2021/12/07 09:22:15;;;;;;;;;60.00;47.00;;;;;2.72;94.05;98916.63;6309170;20;2497171;-41
2021/12/07 09:25:05;;;;;;;;;71.00;54.67;;;;;2.72;94.77;98906.00;6282197;20;2869095;-42
2021/12/07 09:27:35;;;;;;;;;69.33;52.00;;;;;2.75;93.49;98908.53;6310461;20;3634153;-42
2021/12/07 09:30:16;;;;;;;;;72.00;54.33;;;;;3.04;93.00;98909.06;6310111;20;3646084;-42
2021/12/07 09:32:47;;;;;;;;;54.50;42.00;;;;;2.96;92.96;98908.53;6312953;20;2873160;-41
2021/12/07 09:35:18;;;;;;;;;65.67;52.00;;;;;2.96;91.99;98908.53;6280601;20;2876462;-40
2021/12/07 09:37:53;;;;;;;;;68.00;50.00;;;;;3.08;92.39;98908.00;6312298;20;2871362;-42
2021/12/07 09:40:28;;;;;;;;;69.67;53.00;;;;;3.10;91.43;98900.84;6311293;20;2881479;-42
2021/12/07 09:42:58;;;;;;;;;64.00;47.50;;;;;2.98;91.09;98896.09;6310905;20;2861762;-44
2021/12/07 09:45:30;;;;;;;;;58.50;48.00;;;;;3.40;91.38;98908.38;6281686;20;2865110;-41
2021/12/07 09:48:03;;;;;;;;;70.00;52.50;;;;;3.23;90.36;98903.81;6279799;20;2874585;-41
2021/12/07 09:50:36;;;;;;;;;60.00;46.50;;;;;3.29;91.28;98900.88;6280902;20;2860690;-41
2021/12/07 09:53:11;;;;;;;;;62.00;51.00;;;;;3.50;90.54;98899.06;6279473;20;2858670;-41
2021/12/07 09:55:43;;;;;;;;;63.50;48.00;;;;;3.45;89.94;98887.78;6281563;20;2869015;-41
2021/12/07 09:58:14;;;;;;;;;65.00;51.33;;;;;3.75;89.52;98888.19;6279448;20;2871197;-43
2021/12/07 10:00:45;;;;;;;;;70.33;51.00;;;;;3.65;88.46;98889.53;6310679;20;3643964;-41
2021/12/07 10:03:18;;;;;;;;;65.67;49.67;;;;;3.92;88.73;98890.03;6312129;20;2868040;-41
2021/12/07 10:05:48;;;;;;;;;66.00;48.50;;;;;3.67;89.54;98885.88;6311166;20;2876403;-42
2021/12/07 10:08:18;;;;;;;;;52.67;42.00;;;;;4.06;89.36;98887.59;6281322;20;2854444;-43
2021/12/07 10:10:55;;;;;;;;;59.33;42.00;;;;;4.04;87.07;98883.28;6311345;20;3630482;-41
2021/12/07 10:13:30;;;;;;;;;61.00;45.50;;;;;3.87;88.08;98886.72;6312473;20;2873589;-42
2021/12/07 10:16:07;;;;;;;;;64.33;48.67;;;;;4.14;87.45;98884.56;6280830;20;3613868;-42
2021/12/07 10:18:41;;;;;;;;;54.00;42.00;;;;;4.10;87.25;98873.22;6309821;20;3608670;-42
2021/12/07 10:21:27;;;;;;;;;55.33;46.33;;;;;4.34;87.24;98879.13;6314718;20;3598125;-43
2021/12/07 10:24:09;;;;;;;;;53.00;44.00;;;;;4.47;87.07;98873.22;6279875;20;2478401;-44
2021/12/07 10:26:42;;;;;;;;;51.00;41.00;;;;;4.32;86.89;98872.19;6274671;20;2498204;-43
2021/12/07 10:29:15;;;;;;;;;60.00;46.00;;;;;4.39;86.25;98868.28;6278392;20;2850335;-42
2021/12/07 10:32:00;;;;;;;;;55.67;43.67;;;;;4.54;86.24;98864.00;6286063;20;3612782;-41
2021/12/07 10:34:35;;;;;;;;;57.00;44.00;;;;;4.57;85.18;98862.03;6279570;20;2492958;-43
2021/12/07 10:37:16;;;;;;;;;62.67;48.00;;;;;4.60;85.52;98851.25;6284149;20;2860663;-41
2021/12/07 10:39:51;;;;;;;;;54.67;42.00;;;;;4.87;84.57;98868.53;6313014;20;2880536;-41
2021/12/07 10:42:25;;;;;;;;;51.67;39.67;;;;;4.76;84.35;98861.09;6320073;20;3614817;-43
2021/12/07 10:45:09;;;;;;;;;60.67;47.33;;;;;4.94;84.34;98860.16;6284478;20;3606455;-41
2021/12/07 10:47:39;;;;;;;;;40.00;33.67;;;;;4.78;83.13;98849.47;6317340;20;3613843;-42
2021/12/07 10:50:13;;;;;;;;;51.00;41.00;;;;;5.00;83.99;98849.22;6313113;20;2860848;-44
2021/12/07 10:52:45;;;;;;;;;42.67;37.00;;;;;5.05;83.43;98841.88;6283479;20;3616950;-42
2021/12/07 10:55:26;;;;;;;;;39.00;30.00;;;;;5.04;81.54;98832.13;6316542;20;2855480;-42
2021/12/07 10:58:05;;;;;;;;;30.50;25.00;;;;;5.10;80.45;98832.75;6284020;20;2846176;-44
2021/12/07 11:00:47;;;;;;;;;41.33;31.67;;;;;5.04;80.82;98834.81;6284614;20;3612709;-42
2021/12/07 11:03:22;;;;;;;;;38.50;30.00;;;;;5.18;80.42;98833.22;6315898;20;2846241;-43
2021/12/07 11:05:55;;;;;;;;;38.00;29.67;;;;;5.32;81.01;98840.44;6283975;20;2858608;-44
2021/12/07 11:08:33;;;;;;;;;52.67;39.00;;;;;5.22;81.93;98837.44;6316009;20;3627300;-42
2021/12/07 11:11:04;;;;;;;;;38.33;31.33;;;;;5.34;80.89;98835.91;6316237;20;2860765;-44
2021/12/07 11:13:37;;;;;;;;;30.50;28.50;;;;;5.35;79.97;98838.50;6313450;20;2848211;-42
2021/12/07 11:16:12;;;;;;;;;29.00;29.00;;;;;5.36;80.88;98828.72;6285227;20;2845071;-42
2021/12/07 11:18:48;;;;;;;;;37.00;36.50;;;;;5.21;80.76;98825.06;6283421;20;2860641;-42
2021/12/07 11:21:20;;;;;;;;;51.67;40.33;;;;;5.24;80.29;98823.13;6283054;20;3621087;-43
2021/12/07 11:23:57;;;;;;;;;41.67;37.00;;;;;5.43;80.40;98824.78;6313967;20;3620115;-43
2021/12/07 11:31:48;;;;;;;;;28.50;28.50;;;;;5.57;80.56;98816.03;6283999;20;2837775;-44
2021/12/07 11:34:39;;;;;;;;;48.00;37.33;;;;;5.56;81.36;98815.19;6285946;20;2862870;-42
2021/12/07 11:37:12;;;;;;;;;34.00;30.00;;;;;5.49;80.23;98811.97;6314340;20;2838961;-42
2021/12/07 11:39:55;;;;;;;;;41.00;31.67;;;;;5.47;79.39;98811.19;6281957;20;3624158;-42
2021/12/07 11:42:32;;;;;;;;;44.33;31.33;;;;;5.54;79.24;98811.72;6315819;20;3620024;-42
2021/12/07 11:45:18;;;;;;;;;34.00;31.00;;;;;5.00;78.87;98816.41;6315644;20;2851299;-44
2021/12/07 11:48:05;;;;;;;;;43.33;34.33;;;;;5.40;79.27;98817.81;6280199;20;3616104;-41
2021/12/07 11:50:49;;;;;;;;;58.33;46.33;;;;;5.19;80.41;98821.66;6316748;20;3611777;-42
2021/12/07 11:53:25;;;;;;;;;33.50;29.50;;;;;5.37;79.85;98818.00;6283287;20;2851353;-42
2021/12/07 11:55:56;;;;;;;;;41.00;34.00;;;;;5.77;80.27;98818.44;6281112;20;3612755;-42
2021/12/07 11:58:25;;;;;;;;;41.33;33.33;;;;;5.51;79.03;98819.91;6316247;20;3604391;-42
2021/12/07 12:00:57;;;;;;;;;37.00;34.50;;;;;5.61;80.03;98820.22;6279852;20;2838779;-42
2021/12/07 12:03:27;;;;;;;;;43.00;33.33;;;;;5.33;80.28;98821.75;6284242;20;3613800;-42
2021/12/07 12:05:57;;;;;;;;;37.67;30.33;;;;;5.15;81.26;98822.72;6314057;20;3597150;-43
2021/12/07 12:08:32;;;;;;;;;35.50;30.00;;;;;5.26;80.40;98817.69;6315073;20;2849324;-42
2021/12/07 12:11:58;;;;;;;;;35.00;28.00;;;;;5.30;80.17;98821.91;6280054;20;2850328;-42
2021/12/07 12:14:47;;;;;;;;;43.33;37.33;;;;;5.39;81.97;98824.06;6280789;20;3615880;-42
2021/12/07 12:17:52;;;;;;;;;49.33;35.33;;;;;5.36;81.34;98824.25;6311576;20;3624291;-42
2021/12/07 12:20:56;;;;;;;;;41.00;33.50;;;;;5.39;80.84;98824.06;6311255;20;2862736;-44
2021/12/07 12:23:59;;;;;;;;;34.33;30.67;;;;;5.34;81.28;98819.94;6283260;20;2857704;-42
2021/12/07 12:26:35;;;;;;;;;35.00;33.00;;;;;5.42;80.24;98818.56;6314173;20;2852348;-42
2021/12/07 12:29:25;;;;;;;;;38.00;34.00;;;;;5.44;80.85;98821.16;6281544;20;3617965;-42
2021/12/07 12:31:59;;;;;;;;;45.00;37.00;;;;;5.34;80.82;98820.78;6314448;20;3609651;-42
2021/12/07 12:34:38;;;;;;;;;47.00;36.33;;;;;5.26;81.33;98817.69;6284173;20;3622128;-43
2021/12/07 12:37:16;;;;;;;;;39.00;36.33;;;;;5.41;81.05;98819.53;6312991;20;3614981;-42
2021/12/07 12:39:52;;;;;;;;;35.33;25.67;;;;;5.43;80.06;98824.78;6311220;20;2858704;-42
2021/12/07 12:42:44;;;;;;;;;37.33;32.33;;;;;5.38;80.80;98827.69;6314144;20;2858629;-42
2021/12/07 12:45:26;;;;;;;;;40.67;37.00;;;;;5.54;80.71;98833.03;6314282;20;2862827;-42
2021/12/07 12:48:16;;;;;;;;;38.33;31.67;;;;;5.42;82.02;98829.22;6312190;20;3610617;-42
2021/12/07 12:50:51;;;;;;;;;34.67;32.33;;;;;5.27;80.41;98838.91;6315562;20;3575324;-42
2021/12/07 12:53:35;;;;;;;;;43.67;34.33;;;;;5.26;80.55;98833.66;6311319;20;2862828;-42
2021/12/07 12:56:20;;;;;;;;;37.00;33.00;;;;;5.28;80.53;98837.09;6309714;20;3614832;-42
2021/12/07 12:59:07;;;;;;;;;40.33;33.33;;;;;5.38;81.37;98833.00;6312399;20;3602429;-43
2021/12/07 13:01:47;;;;;;;;;9.67;2.00;;;;;5.07;81.49;98837.28;6279322;20;3473169;-43
2021/12/07 13:04:24;;;;;;;;;52.00;42.33;;;;;5.18;81.50;98846.50;6280079;20;2878420;-41
2021/12/07 13:07:25;;;;;;;;;49.33;41.33;;;;;5.07;81.20;98845.28;6315837;20;3611801;-43
2021/12/07 13:10:01;;;;;;;;;57.33;41.67;;;;;5.12;81.58;98846.84;6280590;20;2873268;-42
2021/12/07 13:12:38;;;;;;;;;55.00;42.67;;;;;5.07;80.74;98845.28;6315397;20;3591912;-41
2021/12/07 13:15:11;;;;;;;;;52.50;42.50;;;;;4.91;81.66;98859.47;6313825;20;2838830;-42
2021/12/07 13:17:48;;;;;;;;;53.50;42.50;;;;;4.73;82.61;98858.63;6281009;20;2852421;-42
2021/12/07 13:20:25;;;;;;;;;57.33;41.33;;;;;4.71;82.29;98864.00;6278957;20;2867082;-41
2021/12/07 13:23:08;;;;;;;;;57.00;43.00;;;;;4.43;82.19;98864.53;6313581;20;3591917;-42
2021/12/07 13:25:51;;;;;;;;;57.50;44.00;;;;;4.42;82.95;98862.81;6278593;20;2871170;-41